createdAt,value
2023-05-17T00:00:31.270Z,102528.19
2023-05-17T00:03:01.479Z,102528.13
2023-05-17T00:05:31.344Z,102525.64
2023-05-17T00:08:01.474Z,102525.13
2023-05-17T00:10:31.376Z,102525.13
2023-05-17T00:13:01.527Z,102535.94
2023-05-17T00:15:31.664Z,102534.42
2023-05-17T00:18:01.373Z,102534.55
2023-05-17T00:20:31.399Z,102530.84
2023-05-17T00:23:01.545Z,102530.84
2023-05-17T00:25:31.666Z,102531.45
2023-05-17T00:28:01.843Z,102516.37
2023-05-17T00:30:31.745Z,102516.37
2023-05-17T00:33:02.034Z,102526.00
2023-05-17T00:35:32.109Z,102531.53
2023-05-17T00:38:02.237Z,102529.45
2023-05-17T00:40:33.222Z,102529.45
2023-05-17T00:43:03.640Z,102539.92
2023-05-17T00:45:33.549Z,102532.89
2023-05-17T00:48:05.383Z,102522.66
2023-05-17T00:50:36.054Z,102525.89
2023-05-17T00:53:06.171Z,102530.05
2023-05-17T00:55:36.583Z,102539.80
2023-05-17T00:58:06.748Z,102533.56
2023-05-17T01:00:36.598Z,102533.56
2023-05-17T01:03:08.143Z,102539.64
2023-05-17T01:05:37.821Z,102543.62
2023-05-17T01:08:07.946Z,102532.49
2023-05-17T01:10:55.531Z,102532.49
2023-05-17T01:13:45.429Z,102533.81
2023-05-17T01:16:21.343Z,102531.03
2023-05-17T01:19:03.994Z,102531.03
2023-05-17T01:21:48.872Z,102520.97
2023-05-17T01:24:27.868Z,102532.34
2023-05-17T01:27:00.180Z,102521.00
2023-05-17T01:29:30.854Z,102525.80
2023-05-17T01:32:02.777Z,102525.46
2023-05-17T01:34:32.898Z,102522.53
2023-05-17T01:37:03.024Z,102517.58
2023-05-17T01:39:32.989Z,102528.13
2023-05-17T01:42:14.486Z,102518.19
2023-05-17T01:44:53.320Z,102516.83
2023-05-17T01:47:42.595Z,102518.78
2023-05-17T01:50:15.284Z,102518.33
2023-05-17T01:52:57.078Z,102524.48
2023-05-17T01:55:42.302Z,102532.33
2023-05-17T01:58:14.019Z,102530.12
2023-05-17T02:00:47.403Z,102524.04
2023-05-17T02:03:21.443Z,102527.65
2023-05-17T02:05:53.026Z,102530.69
2023-05-17T02:08:23.356Z,102528.53
2023-05-17T02:10:53.575Z,102529.38
2023-05-17T02:13:23.754Z,102528.87
2023-05-17T02:15:53.586Z,102524.59
2023-05-17T02:18:23.603Z,102522.16
2023-05-17T02:20:53.889Z,102526.33
2023-05-17T02:23:25.008Z,102523.45
2023-05-17T02:25:55.122Z,102518.85
2023-05-17T02:28:25.275Z,102517.89
2023-05-17T02:30:56.386Z,102521.41
2023-05-17T02:33:26.378Z,102527.80
2023-05-17T02:35:56.612Z,102529.58
2023-05-17T02:38:26.440Z,102530.38
2023-05-17T02:40:56.580Z,102529.82
2023-05-17T02:43:26.978Z,102529.82
2023-05-17T02:45:56.845Z,102533.80
2023-05-17T02:48:26.970Z,102533.78
2023-05-17T02:50:57.186Z,102537.70
2023-05-17T02:53:27.031Z,102536.02
2023-05-17T02:55:59.889Z,102532.92
2023-05-17T02:58:29.478Z,102537.78
2023-05-17T03:00:59.466Z,102539.64
2023-05-17T03:03:29.656Z,102541.46
2023-05-17T03:06:05.018Z,102544.19
2023-05-17T03:08:35.299Z,102544.59
2023-05-17T03:11:05.881Z,102548.05
2023-05-17T03:13:35.708Z,102550.78
2023-05-17T03:16:06.266Z,102557.55
2023-05-17T03:18:36.758Z,102555.80
2023-05-17T03:21:06.799Z,102565.50
2023-05-17T03:23:36.792Z,102560.95
2023-05-17T03:26:06.884Z,102560.95
2023-05-17T03:28:38.430Z,102566.13
2023-05-17T03:31:09.245Z,102568.22
2023-05-17T03:33:42.569Z,102578.20
2023-05-17T03:36:14.993Z,102576.52
2023-05-17T03:38:45.276Z,102578.97
2023-05-17T03:41:16.011Z,102585.16
2023-05-17T03:43:46.067Z,102588.73
2023-05-17T03:46:18.028Z,102587.81
2023-05-17T03:48:49.438Z,102586.57
2023-05-17T03:51:19.974Z,102586.98
2023-05-17T03:53:51.664Z,102593.47
2023-05-17T03:56:21.655Z,102593.17
2023-05-17T03:58:51.758Z,102598.39
2023-05-17T04:01:21.974Z,102596.69
2023-05-17T04:03:51.802Z,102605.28
2023-05-17T04:06:22.027Z,102596.09
2023-05-17T04:08:53.602Z,102599.87
2023-05-17T04:11:25.179Z,102604.29
2023-05-17T04:13:56.770Z,102609.48
2023-05-17T04:16:26.388Z,102609.48
2023-05-17T04:18:58.056Z,102616.81
2023-05-17T04:21:29.735Z,102615.20
2023-05-17T04:24:00.096Z,102624.83
2023-05-17T04:26:30.651Z,102635.33
2023-05-17T04:29:00.561Z,102637.99
2023-05-17T04:31:32.154Z,102633.18
2023-05-17T04:34:02.823Z,102635.60
2023-05-17T04:36:32.866Z,102633.84
2023-05-17T04:39:03.567Z,102633.84
2023-05-17T04:41:33.601Z,102636.50
2023-05-17T04:44:04.467Z,102638.48
2023-05-17T04:46:36.378Z,102640.97
2023-05-17T04:49:07.369Z,102648.99
2023-05-17T04:51:37.421Z,102645.23
2023-05-17T04:54:08.699Z,102650.57
2023-05-17T04:56:38.726Z,102649.93
2023-05-17T04:59:11.751Z,102655.27
2023-05-17T05:01:41.846Z,102662.56
2023-05-17T05:04:13.206Z,102665.81
2023-05-17T05:06:44.437Z,102661.72
2023-05-17T05:09:14.717Z,102670.30
2023-05-17T05:11:44.566Z,102679.50
2023-05-17T05:14:14.968Z,102679.50
2023-05-17T05:16:45.102Z,102682.80
2023-05-17T05:19:15.476Z,102682.80
2023-05-17T05:21:48.426Z,102679.50
2023-05-17T05:24:18.800Z,102689.69
2023-05-17T05:26:49.669Z,102686.88
2023-05-17T05:29:20.835Z,102687.61
2023-05-17T05:31:50.763Z,102691.15
2023-05-17T05:34:21.082Z,102698.95
2023-05-17T05:36:51.753Z,102707.28
2023-05-17T05:39:21.920Z,102706.25
2023-05-17T05:41:52.405Z,102704.60
2023-05-17T05:44:23.959Z,102708.03
2023-05-17T05:46:54.898Z,102710.78
2023-05-17T05:49:25.314Z,102709.97
2023-05-17T05:51:55.900Z,102715.27
2023-05-17T05:54:27.293Z,102716.65
2023-05-17T05:56:57.215Z,102719.04
2023-05-17T05:59:27.720Z,102721.59
2023-05-17T06:01:59.319Z,102723.95
2023-05-17T06:04:43.928Z,102725.70
2023-05-17T06:07:01.779Z,102735.27
2023-05-17T06:09:32.188Z,102732.98
2023-05-17T06:12:02.091Z,102731.97
2023-05-17T06:14:32.259Z,102731.14
2023-05-17T06:17:02.183Z,102738.43
2023-05-17T06:19:32.614Z,102742.36
2023-05-17T06:22:02.691Z,102740.34
2023-05-17T06:24:33.237Z,102742.17
2023-05-17T06:27:03.573Z,102746.98
2023-05-17T06:29:33.838Z,102746.09
2023-05-17T06:32:03.662Z,102752.61
2023-05-17T06:34:33.516Z,102753.72
2023-05-17T06:37:03.532Z,102742.88
2023-05-17T06:39:33.722Z,102742.88
2023-05-17T06:42:03.540Z,102753.13
2023-05-17T06:44:35.913Z,102758.84
2023-05-17T06:47:05.804Z,102757.28
2023-05-17T06:49:36.246Z,102756.45
2023-05-17T06:52:06.318Z,102759.72
2023-05-17T06:54:36.486Z,102761.87
2023-05-17T06:57:06.586Z,102757.68
2023-05-17T06:59:38.286Z,102759.42
2023-05-17T07:02:08.213Z,102759.42
2023-05-17T07:04:38.444Z,102765.11
2023-05-17T07:07:08.302Z,102765.86
2023-05-17T07:09:38.752Z,102771.64
2023-05-17T07:12:08.767Z,102771.64
2023-05-17T07:14:38.912Z,102771.20
2023-05-17T07:17:09.060Z,102767.56
2023-05-17T07:19:39.299Z,102776.52
2023-05-17T07:22:09.897Z,102781.09
2023-05-17T07:24:40.037Z,102776.66
2023-05-17T07:27:09.902Z,102787.44
2023-05-17T07:29:42.061Z,102786.73
2023-05-17T07:32:11.908Z,102781.05
2023-05-17T07:34:41.856Z,102788.09
2023-05-17T07:37:11.703Z,102784.97
2023-05-17T07:39:41.619Z,102790.62
2023-05-17T07:42:11.788Z,102804.17
2023-05-17T07:44:41.942Z,102804.17
2023-05-17T07:47:11.896Z,102790.95
2023-05-17T07:49:41.866Z,102796.67
2023-05-17T07:52:12.206Z,102793.88
2023-05-17T07:54:42.032Z,102797.88
2023-05-17T07:57:11.904Z,102803.80
2023-05-17T07:59:41.746Z,102802.82
2023-05-17T08:02:11.586Z,102803.92
2023-05-17T08:04:42.120Z,102800.72
2023-05-17T08:07:11.932Z,102800.06
2023-05-17T08:09:43.430Z,102808.11
2023-05-17T08:12:14.324Z,102803.70
2023-05-17T08:14:44.172Z,102807.84
2023-05-17T08:17:14.114Z,102816.03
2023-05-17T08:19:44.963Z,102808.96
2023-05-17T08:22:17.747Z,102804.67
2023-05-17T08:24:48.430Z,102818.09
2023-05-17T08:27:18.444Z,102813.13
2023-05-17T08:29:48.306Z,102812.44
2023-05-17T08:32:21.185Z,102804.92
2023-05-17T08:34:51.173Z,102808.40
2023-05-17T08:37:20.811Z,102802.64
2023-05-17T08:39:51.519Z,102803.31
2023-05-17T08:42:25.697Z,102800.09
2023-05-17T08:44:56.444Z,102800.09
2023-05-17T08:47:32.159Z,102806.70
2023-05-17T08:50:03.443Z,102819.89
2023-05-17T08:52:33.888Z,102815.69
2023-05-17T08:55:05.477Z,102815.14
2023-05-17T08:57:37.636Z,102817.73
2023-05-17T09:00:15.379Z,102814.81
2023-05-17T09:02:45.336Z,102817.30
2023-05-17T09:05:16.362Z,102804.23
2023-05-17T09:07:48.257Z,102804.23
2023-05-17T09:10:20.473Z,102818.38
2023-05-17T09:12:50.697Z,102821.16
2023-05-17T09:15:24.119Z,102813.45
2023-05-17T09:17:55.619Z,102819.84
2023-05-17T09:20:28.830Z,102817.73
2023-05-17T09:22:59.068Z,102819.29
2023-05-17T09:25:30.228Z,102815.12
2023-05-17T09:28:05.288Z,102818.20
2023-05-17T09:30:38.191Z,102821.53
2023-05-17T09:33:09.287Z,102816.39
2023-05-17T09:35:39.964Z,102818.70
2023-05-17T09:38:12.520Z,102823.02
2023-05-17T09:40:44.618Z,102816.87
2023-05-17T09:43:15.408Z,102813.00
2023-05-17T09:45:45.705Z,102809.43
2023-05-17T09:48:18.565Z,102808.22
2023-05-17T09:50:51.054Z,102811.11
2023-05-17T09:53:31.017Z,102818.84
2023-05-17T09:56:05.661Z,102817.69
2023-05-17T09:58:39.610Z,102832.27
2023-05-17T10:01:11.219Z,102814.62
2023-05-17T10:03:41.269Z,102806.87
2023-05-17T10:06:23.792Z,102814.17
2023-05-17T10:08:49.383Z,102812.39
2023-05-17T10:11:21.517Z,102820.47
2023-05-17T10:14:12.161Z,102806.42
2023-05-17T10:16:43.109Z,102812.67
2023-05-17T10:19:13.353Z,102821.98
2023-05-17T10:21:44.103Z,102815.06
2023-05-17T10:24:14.083Z,102830.89
2023-05-17T10:26:44.466Z,102827.23
2023-05-17T10:29:16.206Z,102821.95
2023-05-17T10:31:47.821Z,102821.95
2023-05-17T10:34:19.251Z,102814.33
2023-05-17T10:36:50.905Z,102815.95
2023-05-17T10:39:22.588Z,102820.77
2023-05-17T10:42:06.797Z,102818.30
2023-05-17T10:44:27.028Z,102821.03
2023-05-17T10:46:58.014Z,102804.83
2023-05-17T10:49:33.627Z,102798.58
2023-05-17T10:52:17.434Z,102798.58
2023-05-17T10:54:50.978Z,102809.09
2023-05-17T10:57:50.773Z,102815.66
2023-05-17T11:00:12.318Z,102809.42
2023-05-17T11:02:43.557Z,102805.55
2023-05-17T11:05:27.417Z,102800.51
2023-05-17T11:08:19.255Z,102795.97
2023-05-17T11:11:12.394Z,102795.87
2023-05-17T11:13:59.055Z,102796.23
2023-05-17T11:16:38.894Z,102795.61
2023-05-17T11:19:12.780Z,102802.42
2023-05-17T11:21:50.027Z,102794.98
2023-05-17T11:24:22.610Z,102799.84
2023-05-17T11:26:52.907Z,102798.30
2023-05-17T11:29:24.256Z,102802.98
2023-05-17T11:31:54.107Z,102796.12
2023-05-17T11:34:25.591Z,102800.20
2023-05-17T11:36:56.891Z,102799.21
2023-05-17T11:39:27.112Z,102793.55
2023-05-17T11:41:58.656Z,102796.89
2023-05-17T11:44:33.420Z,102795.00
2023-05-17T11:47:04.277Z,102792.84
2023-05-17T11:49:37.457Z,102796.44
2023-05-17T11:52:08.079Z,102795.77
2023-05-17T11:54:39.476Z,102794.19
2023-05-17T11:57:10.268Z,102792.19
2023-05-17T11:59:40.855Z,102792.76
2023-05-17T12:02:10.660Z,102792.38
2023-05-17T12:04:40.793Z,102787.30
2023-05-17T12:07:13.363Z,102798.86
2023-05-17T12:09:45.389Z,102791.48
2023-05-17T12:12:15.177Z,102787.60
2023-05-17T12:14:45.939Z,102795.41
2023-05-17T12:17:18.843Z,102795.31
2023-05-17T12:19:48.865Z,102780.80
2023-05-17T12:22:18.792Z,102783.10
2023-05-17T12:24:48.698Z,102778.83
2023-05-17T12:27:27.061Z,102777.17
2023-05-17T12:29:56.886Z,102771.87
2023-05-17T12:32:26.888Z,102779.11
2023-05-17T12:34:56.869Z,102785.12
2023-05-17T12:37:26.986Z,102778.26
2023-05-17T12:39:58.727Z,102780.55
2023-05-17T12:42:28.415Z,102775.43
2023-05-17T12:44:59.753Z,102775.02
2023-05-17T12:47:32.907Z,102781.52
2023-05-17T12:50:03.504Z,102780.13
2023-05-17T12:52:36.724Z,102778.63
2023-05-17T12:55:09.680Z,102782.87
2023-05-17T12:57:39.518Z,102781.84
2023-05-17T13:00:10.612Z,102776.35
2023-05-17T13:02:44.595Z,102785.02
2023-05-17T13:05:24.561Z,102772.82
2023-05-17T13:07:54.971Z,102772.82
2023-05-17T13:10:29.057Z,102771.75
2023-05-17T13:13:00.491Z,102771.75
2023-05-17T13:15:34.265Z,102778.07
2023-05-17T13:18:09.792Z,102775.67
2023-05-17T13:20:39.715Z,102767.75
2023-05-17T13:23:10.641Z,102762.53
2023-05-17T13:25:40.222Z,102763.33
2023-05-17T13:28:11.620Z,102763.33
2023-05-17T13:30:41.460Z,102759.22
2023-05-17T13:33:11.384Z,102749.48
2023-05-17T13:35:41.324Z,102749.41
2023-05-17T13:38:10.863Z,102753.58
2023-05-17T13:40:40.959Z,102761.37
2023-05-17T13:43:11.075Z,102746.81
2023-05-17T13:45:40.905Z,102749.48
2023-05-17T13:48:11.939Z,102750.62
2023-05-17T13:50:42.143Z,102748.01
2023-05-17T13:53:12.123Z,102742.55
2023-05-17T13:55:41.959Z,102748.59
2023-05-17T13:58:11.752Z,102750.42
2023-05-17T14:00:44.224Z,102752.97
2023-05-17T14:03:14.716Z,102747.73
2023-05-17T14:05:46.173Z,102754.82
2023-05-17T14:08:15.744Z,102744.47
2023-05-17T14:10:45.670Z,102750.42
2023-05-17T14:13:15.540Z,102749.27
2023-05-17T14:15:45.188Z,102753.27
2023-05-17T14:18:14.872Z,102757.36
2023-05-17T14:20:44.786Z,102753.41
2023-05-17T14:23:14.856Z,102749.47
2023-05-17T14:25:44.717Z,102752.97
2023-05-17T14:28:14.991Z,102741.41
2023-05-17T14:30:46.659Z,102737.40
2023-05-17T14:33:16.347Z,102740.72
2023-05-17T14:35:46.384Z,102747.11
2023-05-17T14:38:15.931Z,102743.86
2023-05-17T14:40:45.795Z,102742.74
2023-05-17T14:43:16.314Z,102741.02
2023-05-17T14:45:46.222Z,102744.34
2023-05-17T14:48:16.284Z,102747.48
2023-05-17T14:50:46.414Z,102745.17
2023-05-17T14:53:16.491Z,102744.65
2023-05-17T14:55:46.331Z,102750.52
2023-05-17T14:58:16.622Z,102750.22
2023-05-17T15:00:48.480Z,102746.27
2023-05-17T15:03:21.968Z,102754.03
2023-05-17T15:05:59.809Z,102757.34
2023-05-17T15:08:29.771Z,102764.05
2023-05-17T15:11:00.849Z,102751.16
2023-05-17T15:13:30.831Z,102760.00
2023-05-17T15:16:01.008Z,102756.40
2023-05-17T15:18:31.242Z,102755.31
2023-05-17T15:21:02.760Z,102750.95
2023-05-17T15:23:32.577Z,102755.34
2023-05-17T15:26:02.471Z,102751.84
2023-05-17T15:28:32.617Z,102755.16
2023-05-17T15:31:05.598Z,102750.86
2023-05-17T15:33:36.327Z,102750.73
2023-05-17T15:36:08.330Z,102756.16
2023-05-17T15:38:38.547Z,102751.27
2023-05-17T15:41:10.295Z,102755.72
2023-05-17T15:43:40.139Z,102745.41
2023-05-17T15:46:10.125Z,102746.15
2023-05-17T15:48:40.063Z,102744.41
2023-05-17T15:51:10.058Z,102743.96
2023-05-17T15:53:40.133Z,102743.64
2023-05-17T15:56:10.288Z,102739.64
2023-05-17T15:58:40.110Z,102743.68
2023-05-17T16:01:09.937Z,102746.48
2023-05-17T16:03:39.851Z,102742.64
2023-05-17T16:06:10.247Z,102742.26
2023-05-17T16:08:40.134Z,102743.88
2023-05-17T16:11:10.176Z,102751.00
2023-05-17T16:13:40.073Z,102739.95
2023-05-17T16:16:10.761Z,102740.30
2023-05-17T16:18:40.726Z,102746.92
2023-05-17T16:21:10.319Z,102744.45
2023-05-17T16:23:40.155Z,102738.67
2023-05-17T16:26:10.017Z,102736.75
2023-05-17T16:28:39.862Z,102744.33
2023-05-17T16:31:09.506Z,102732.92
2023-05-17T16:33:41.279Z,102735.13
2023-05-17T16:36:12.309Z,102742.32
2023-05-17T16:38:42.213Z,102735.37
2023-05-17T16:41:12.429Z,102736.94
2023-05-17T16:43:42.286Z,102739.98
2023-05-17T16:46:11.893Z,102743.28
2023-05-17T16:48:41.735Z,102740.67
2023-05-17T16:51:11.577Z,102738.20
2023-05-17T16:53:42.104Z,102743.86
2023-05-17T16:56:13.564Z,102743.32
2023-05-17T16:58:43.477Z,102743.00
2023-05-17T17:01:13.647Z,102744.12
2023-05-17T17:03:43.971Z,102751.83
2023-05-17T17:06:13.562Z,102755.49
2023-05-17T17:08:43.157Z,102750.34
2023-05-17T17:11:12.996Z,102751.45
2023-05-17T17:13:42.820Z,102752.97
2023-05-17T17:16:12.710Z,102761.53
2023-05-17T17:18:42.623Z,102755.85
2023-05-17T17:21:12.482Z,102755.67
2023-05-17T17:23:44.266Z,102761.41
2023-05-17T17:26:13.820Z,102761.81
2023-05-17T17:28:43.744Z,102763.27
2023-05-17T17:31:13.581Z,102757.62
2023-05-17T17:33:43.820Z,102765.56
2023-05-17T17:36:13.429Z,102765.56
2023-05-17T17:38:43.335Z,102768.07
2023-05-17T17:41:13.186Z,102768.07
2023-05-17T17:43:43.224Z,102771.18
2023-05-17T17:46:12.998Z,102747.98
2023-05-17T17:48:42.842Z,102747.98
2023-05-17T17:51:13.003Z,102761.60
2023-05-17T17:53:42.818Z,102770.16
2023-05-17T17:56:12.716Z,102769.09
2023-05-17T17:58:43.442Z,102772.17
2023-05-17T18:01:13.450Z,102777.08
2023-05-17T18:03:43.248Z,102772.00
2023-05-17T18:06:14.160Z,102777.73
2023-05-17T18:08:44.058Z,102782.44
2023-05-17T18:11:14.078Z,102778.84
2023-05-17T18:13:44.042Z,102780.00
2023-05-17T18:16:13.684Z,102787.88
2023-05-17T18:18:44.118Z,102786.46
2023-05-17T18:21:14.605Z,102780.31
2023-05-17T18:23:44.211Z,102780.52
2023-05-17T18:26:14.134Z,102788.12
2023-05-17T18:28:43.969Z,102789.72
2023-05-17T18:31:14.920Z,102784.17
2023-05-17T18:33:45.354Z,102787.78
2023-05-17T18:36:15.248Z,102785.25
2023-05-17T18:38:45.624Z,102791.97
2023-05-17T18:41:15.540Z,102789.70
2023-05-17T18:43:45.693Z,102790.59
2023-05-17T18:46:15.536Z,102793.28
2023-05-17T18:48:45.693Z,102796.45
2023-05-17T18:51:15.907Z,102791.55
2023-05-17T18:53:45.826Z,102795.73
2023-05-17T18:56:16.993Z,102801.73
2023-05-17T18:58:46.848Z,102802.56
2023-05-17T19:01:16.484Z,102798.75
2023-05-17T19:03:47.345Z,102799.03
2023-05-17T19:06:17.976Z,102802.47
2023-05-17T19:08:49.686Z,102803.68
2023-05-17T19:11:19.769Z,102810.39
2023-05-17T19:13:49.648Z,102812.59
2023-05-17T19:16:19.317Z,102822.92
2023-05-17T19:18:49.917Z,102824.45
2023-05-17T19:21:19.530Z,102825.44
2023-05-17T19:23:49.768Z,102824.40
2023-05-17T19:26:19.496Z,102827.18
2023-05-17T19:28:49.413Z,102832.86
2023-05-17T19:31:19.426Z,102832.71
2023-05-17T19:33:49.291Z,102835.45
2023-05-17T19:36:19.150Z,102843.20
2023-05-17T19:38:51.738Z,102841.31
2023-05-17T19:41:21.865Z,102836.53
2023-05-17T19:43:51.672Z,102844.77
2023-05-17T19:46:21.288Z,102847.35
2023-05-17T19:48:51.342Z,102851.73
2023-05-17T19:51:21.188Z,102851.22
2023-05-17T19:53:54.001Z,102845.73
2023-05-17T19:56:24.450Z,102853.62
2023-05-17T19:58:54.289Z,102851.57
2023-05-17T20:01:24.178Z,102853.68
2023-05-17T20:03:54.197Z,102851.47
2023-05-17T20:06:24.140Z,102859.88
2023-05-17T20:08:53.981Z,102853.52
2023-05-17T20:11:24.142Z,102857.63
2023-05-17T20:13:54.000Z,102860.55
2023-05-17T20:16:25.269Z,102854.40
2023-05-17T20:18:56.910Z,102852.16
2023-05-17T20:21:26.805Z,102853.37
2023-05-17T20:24:04.031Z,102855.59
2023-05-17T20:26:35.844Z,102851.83
2023-05-17T20:29:07.260Z,102855.23
2023-05-17T20:31:37.645Z,102852.48
2023-05-17T20:34:10.739Z,102854.21
2023-05-17T20:36:42.083Z,102850.05
2023-05-17T20:39:11.912Z,102850.05
2023-05-17T20:41:43.267Z,102850.91
2023-05-17T20:44:14.742Z,102851.56
2023-05-17T20:46:44.874Z,102848.47
2023-05-17T20:49:14.762Z,102851.05
2023-05-17T20:51:44.674Z,102858.05
2023-05-17T20:54:14.352Z,102846.02
2023-05-17T20:56:44.196Z,102849.61
2023-05-17T20:59:14.057Z,102854.73
2023-05-17T21:01:43.915Z,102854.73
2023-05-17T21:04:14.266Z,102856.88
2023-05-17T21:06:44.399Z,102862.31
2023-05-17T21:09:14.306Z,102856.84
2023-05-17T21:11:44.228Z,102865.43
2023-05-17T21:14:14.108Z,102865.43
2023-05-17T21:16:44.060Z,102864.70
2023-05-17T21:19:14.425Z,102862.94
2023-05-17T21:21:44.278Z,102867.76
2023-05-17T21:24:14.112Z,102868.39
2023-05-17T21:26:43.956Z,102867.80
2023-05-17T21:29:13.810Z,102874.23
2023-05-17T21:31:43.675Z,102871.05
2023-05-17T21:34:13.325Z,102874.24
2023-05-17T21:36:43.228Z,102878.65
2023-05-17T21:39:12.884Z,102883.14
2023-05-17T21:41:42.816Z,102879.76
2023-05-17T21:44:12.345Z,102881.11
2023-05-17T21:46:42.223Z,102876.31
2023-05-17T21:49:12.130Z,102879.14
2023-05-17T21:51:43.712Z,102880.48
2023-05-17T21:54:13.523Z,102879.73
2023-05-17T21:56:43.042Z,102876.68
2023-05-17T21:59:12.893Z,102877.77
2023-05-17T22:01:42.852Z,102875.56
2023-05-17T22:04:12.436Z,102875.56
2023-05-17T22:06:42.848Z,102877.70
2023-05-17T22:09:13.050Z,102871.58
2023-05-17T22:11:43.039Z,102873.47
2023-05-17T22:14:13.422Z,102872.91
2023-05-17T22:16:44.403Z,102876.58
2023-05-17T22:19:14.336Z,102877.94
2023-05-17T22:21:44.169Z,102877.94
2023-05-17T22:24:13.998Z,102884.61
2023-05-17T22:26:43.941Z,102881.61
2023-05-17T22:29:13.795Z,102886.66
2023-05-17T22:31:43.675Z,102883.91
2023-05-17T22:34:13.590Z,102887.33
2023-05-17T22:36:43.733Z,102878.64
2023-05-17T22:39:14.147Z,102881.16
2023-05-17T22:41:44.269Z,102881.25
2023-05-17T22:44:14.179Z,102877.25
2023-05-17T22:46:45.743Z,102876.47
2023-05-17T22:49:16.869Z,102885.09
2023-05-17T22:51:47.033Z,102886.52
2023-05-17T22:54:17.012Z,102881.51
2023-05-17T22:56:46.927Z,102880.91
2023-05-17T22:59:16.786Z,102885.02
2023-05-17T23:01:46.807Z,102882.45
2023-05-17T23:04:16.678Z,102882.95
2023-05-17T23:06:47.230Z,102884.36
2023-05-17T23:09:17.421Z,102888.41
2023-05-17T23:11:47.252Z,102886.38
2023-05-17T23:14:18.144Z,102886.74
2023-05-17T23:16:48.390Z,102888.00
2023-05-17T23:19:18.400Z,102893.40
2023-05-17T23:21:48.967Z,102897.19
2023-05-17T23:24:18.842Z,102895.83
2023-05-17T23:26:48.754Z,102899.05
2023-05-17T23:29:18.863Z,102899.09
2023-05-17T23:31:50.528Z,102892.13
2023-05-17T23:34:20.246Z,102896.91
2023-05-17T23:36:50.070Z,102893.77
2023-05-17T23:39:19.909Z,102895.78
2023-05-17T23:41:51.627Z,102898.42
2023-05-17T23:44:21.189Z,102900.77
2023-05-17T23:46:52.836Z,102901.64
2023-05-17T23:49:25.993Z,102895.38
2023-05-17T23:51:56.328Z,102899.34
2023-05-17T23:54:26.641Z,102899.34
2023-05-17T23:56:56.892Z,102893.34
2023-05-17T23:59:26.725Z,102898.15
